﻿<?xml version="1.0" encoding="utf-8"?><gpx creator="Garmin Desktop App" version="1.1" xsi:schemaLocation="http://www.topografix.com/GPX/1/1 http://www.topografix.com/GPX/1/1/gpx.xsd http://www.garmin.com/xmlschemas/WaypointExtension/v1 http://www8.garmin.com/xmlschemas/WaypointExtensionv1.xsd http://www.garmin.com/xmlschemas/TrackPointExtension/v1 http://www.garmin.com/xmlschemas/TrackPointExtensionv1.xsd http://www.garmin.com/xmlschemas/GpxExtensions/v3 http://www8.garmin.com/xmlschemas/GpxExtensionsv3.xsd http://www.garmin.com/xmlschemas/ActivityExtension/v1 http://www8.garmin.com/xmlschemas/ActivityExtensionv1.xsd http://www.garmin.com/xmlschemas/AdventuresExtensions/v1 http://www8.garmin.com/xmlschemas/AdventuresExtensionv1.xsd http://www.garmin.com/xmlschemas/PressureExtension/v1 http://www.garmin.com/xmlschemas/PressureExtensionv1.xsd http://www.garmin.com/xmlschemas/TripExtensions/v1 http://www.garmin.com/xmlschemas/TripExtensionsv1.xsd http://www.garmin.com/xmlschemas/TripMetaDataExtensions/v1 http://www.garmin.com/xmlschemas/TripMetaDataExtensionsv1.xsd http://www.garmin.com/xmlschemas/ViaPointTransportationModeExtensions/v1 http://www.garmin.com/xmlschemas/ViaPointTransportationModeExtensionsv1.xsd http://www.garmin.com/xmlschemas/CreationTimeExtension/v1 http://www.garmin.com/xmlschemas/CreationTimeExtensionsv1.xsd http://www.garmin.com/xmlschemas/AccelerationExtension/v1 http://www.garmin.com/xmlschemas/AccelerationExtensionv1.xsd http://www.garmin.com/xmlschemas/PowerExtension/v1 http://www.garmin.com/xmlschemas/PowerExtensionv1.xsd http://www.garmin.com/xmlschemas/VideoExtension/v1 http://www.garmin.com/xmlschemas/VideoExtensionv1.xsd" xmlns="http://www.topografix.com/GPX/1/1" xmlns:xsi="http://www.w3.org/2001/XMLSchema-instance" xmlns:wptx1="http://www.garmin.com/xmlschemas/WaypointExtension/v1" xmlns:gpxtrx="http://www.garmin.com/xmlschemas/GpxExtensions/v3" xmlns:gpxtpx="http://www.garmin.com/xmlschemas/TrackPointExtension/v1" xmlns:gpxx="http://www.garmin.com/xmlschemas/GpxExtensions/v3" xmlns:trp="http://www.garmin.com/xmlschemas/TripExtensions/v1" xmlns:adv="http://www.garmin.com/xmlschemas/AdventuresExtensions/v1" xmlns:prs="http://www.garmin.com/xmlschemas/PressureExtension/v1" xmlns:tmd="http://www.garmin.com/xmlschemas/TripMetaDataExtensions/v1" xmlns:vptm="http://www.garmin.com/xmlschemas/ViaPointTransportationModeExtensions/v1" xmlns:ctx="http://www.garmin.com/xmlschemas/CreationTimeExtension/v1" xmlns:gpxacc="http://www.garmin.com/xmlschemas/AccelerationExtension/v1" xmlns:gpxpx="http://www.garmin.com/xmlschemas/PowerExtension/v1" xmlns:vidx1="http://www.garmin.com/xmlschemas/VideoExtension/v1">

  <metadata>
    <link href="http://www.garmin.com">
      <text>Garmin International</text>
    </link>
    <time>2024-03-13T12:51:19Z</time>
    <bounds maxlat="50.006039952859282" maxlon="5.116539169102907" minlat="49.968841150403023" minlon="5.049120839685202" />
  </metadata>

  <trk>
    <name>graide 18 km oost</name>
    <extensions>
      <gpxx:TrackExtension>
        <gpxx:DisplayColor>DarkRed</gpxx:DisplayColor>
      </gpxx:TrackExtension>
    </extensions>
    <trkseg>
      <trkpt lat="49.974241442978382" lon="5.049526020884514">
        <ele>323.62</ele>
        <time>2015-05-02T08:20:33Z</time>
      </trkpt>
      <trkpt lat="49.974683672189713" lon="5.049120839685202">
        <ele>322.66000000000003</ele>
        <time>2015-05-02T08:20:53Z</time>
      </trkpt>
      <trkpt lat="49.974797833710909" lon="5.049228128045797">
        <ele>321.22000000000003</ele>
        <time>2015-05-02T08:22:05Z</time>
      </trkpt>
      <trkpt lat="49.974988522008061" lon="5.049767252057791">
        <ele>319.77999999999997</ele>
        <time>2015-05-02T08:22:36Z</time>
      </trkpt>
      <trkpt lat="49.975175438448787" lon="5.050366641953588">
        <ele>318.32999999999998</ele>
        <time>2015-05-02T08:23:09Z</time>
      </trkpt>
      <trkpt lat="49.9753388017416" lon="5.050867712125182">
        <ele>316.88999999999999</ele>
        <time>2015-05-02T08:23:35Z</time>
      </trkpt>
      <trkpt lat="49.975515324622393" lon="5.051432987675071">
        <ele>315.44999999999999</ele>
        <time>2015-05-02T08:24:04Z</time>
      </trkpt>
      <trkpt lat="49.975718921050429" lon="5.051966914907098">
        <ele>314.00999999999999</ele>
        <time>2015-05-02T08:24:31Z</time>
      </trkpt>
      <trkpt lat="49.975853031501174" lon="5.052478294819593">
        <ele>312.08999999999997</ele>
        <time>2015-05-02T08:24:59Z</time>
      </trkpt>
      <trkpt lat="49.975987393409014" lon="5.052920104935765">
        <ele>310.63999999999999</ele>
        <time>2015-05-02T08:25:25Z</time>
      </trkpt>
      <trkpt lat="49.976145979017019" lon="5.053621586412191">
        <ele>310.63999999999999</ele>
        <time>2015-05-02T08:25:54Z</time>
      </trkpt>
      <trkpt lat="49.97666398063302" lon="5.054982556030154">
        <ele>311.60000000000002</ele>
        <time>2015-05-02T08:27:44Z</time>
      </trkpt>
      <trkpt lat="49.97699523344636" lon="5.055931555107236">
        <ele>312.08999999999997</ele>
        <time>2015-05-02T08:28:04Z</time>
      </trkpt>
      <trkpt lat="49.977590600028634" lon="5.057487739250064">
        <ele>316.41000000000003</ele>
        <time>2015-05-02T08:29:35Z</time>
      </trkpt>
      <trkpt lat="49.977679532021284" lon="5.057840701192617">
        <ele>317.37</ele>
        <time>2015-05-02T08:29:53Z</time>
      </trkpt>
      <trkpt lat="49.9777702242136" lon="5.058302963152528">
        <ele>315.93000000000001</ele>
        <time>2015-05-02T08:30:20Z</time>
      </trkpt>
      <trkpt lat="49.977820767089725" lon="5.05883714184165">
        <ele>313.05000000000001</ele>
        <time>2015-05-02T08:30:46Z</time>
      </trkpt>
      <trkpt lat="49.977982621639967" lon="5.059495288878679">
        <ele>309.68000000000001</ele>
        <time>2015-05-02T08:31:14Z</time>
      </trkpt>
      <trkpt lat="49.97813425026834" lon="5.059966100379825">
        <ele>307.75999999999999</ele>
        <time>2015-05-02T08:31:43Z</time>
      </trkpt>
      <trkpt lat="49.978268276900053" lon="5.060575297102332">
        <ele>306.31999999999999</ele>
        <time>2015-05-02T08:32:09Z</time>
      </trkpt>
      <trkpt lat="49.978316221386194" lon="5.060724494978786">
        <ele>306.80000000000001</ele>
        <time>2015-05-02T08:32:14Z</time>
      </trkpt>
      <trkpt lat="49.978461815044284" lon="5.061228414997459">
        <ele>303.43000000000001</ele>
        <time>2015-05-02T08:34:42Z</time>
      </trkpt>
      <trkpt lat="49.978614700958133" lon="5.061818500980735">
        <ele>301.50999999999999</ele>
        <time>2015-05-02T08:35:09Z</time>
      </trkpt>
      <trkpt lat="49.978796252980828" lon="5.062284618616104">
        <ele>298.14999999999998</ele>
        <time>2015-05-02T08:35:33Z</time>
      </trkpt>
      <trkpt lat="49.979008063673973" lon="5.062788538634777">
        <ele>296.22000000000003</ele>
        <time>2015-05-02T08:36:00Z</time>
      </trkpt>
      <trkpt lat="49.979171510785818" lon="5.063320202752948">
        <ele>294.77999999999997</ele>
        <time>2015-05-02T08:36:25Z</time>
      </trkpt>
      <trkpt lat="49.979509050026536" lon="5.064656529575586">
        <ele>291.42000000000002</ele>
        <time>2015-05-02T08:37:26Z</time>
      </trkpt>
      <trkpt lat="49.979936527088284" lon="5.065660933032632">
        <ele>286.13</ele>
        <time>2015-05-02T08:38:23Z</time>
      </trkpt>
      <trkpt lat="49.98018697835505" lon="5.066175665706396">
        <ele>282.76999999999998</ele>
        <time>2015-05-02T08:38:50Z</time>
      </trkpt>
      <trkpt lat="49.980291416868567" lon="5.066416058689356">
        <ele>281.80000000000001</ele>
        <time>2015-05-02T08:39:02Z</time>
      </trkpt>
      <trkpt lat="49.980554273352027" lon="5.066918805241585">
        <ele>279.88</ele>
        <time>2015-05-02T08:39:29Z</time>
      </trkpt>
      <trkpt lat="49.980846885591745" lon="5.067345444113016">
        <ele>277</ele>
        <time>2015-05-02T08:39:55Z</time>
      </trkpt>
      <trkpt lat="49.981144862249494" lon="5.067797312512994">
        <ele>275.56</ele>
        <time>2015-05-02T08:40:21Z</time>
      </trkpt>
      <trkpt lat="49.981369078159332" lon="5.068107945844531">
        <ele>274.58999999999997</ele>
        <time>2015-05-02T08:40:40Z</time>
      </trkpt>
      <trkpt lat="49.981630090624094" lon="5.068610440939665">
        <ele>274.11000000000001</ele>
        <time>2015-05-02T08:41:09Z</time>
      </trkpt>
      <trkpt lat="49.981685495004058" lon="5.068760477006435">
        <ele>274.11000000000001</ele>
        <time>2015-05-02T08:41:34Z</time>
      </trkpt>
      <trkpt lat="49.981780210509896" lon="5.069093909114599">
        <ele>273.63</ele>
        <time>2015-05-02T08:41:55Z</time>
      </trkpt>
      <trkpt lat="49.981928737834096" lon="5.069777956232429">
        <ele>273.14999999999998</ele>
        <time>2015-05-02T08:42:24Z</time>
      </trkpt>
      <trkpt lat="49.982028650119901" lon="5.070310458540916">
        <ele>272.19</ele>
        <time>2015-05-02T08:42:50Z</time>
      </trkpt>
      <trkpt lat="49.982063267379999" lon="5.070584127679467">
        <ele>271.23000000000002</ele>
        <time>2015-05-02T08:43:02Z</time>
      </trkpt>
      <trkpt lat="49.982096292078495" lon="5.070672975853086">
        <ele>271.23000000000002</ele>
        <time>2015-05-02T08:43:08Z</time>
      </trkpt>
      <trkpt lat="49.982259990647435" lon="5.070039806887507">
        <ele>274.11000000000001</ele>
        <time>2015-05-02T08:43:35Z</time>
      </trkpt>
      <trkpt lat="49.982434753328562" lon="5.069470256567001">
        <ele>277.48000000000002</ele>
        <time>2015-05-02T08:43:50Z</time>
      </trkpt>
      <trkpt lat="49.982610605657101" lon="5.068960636854172">
        <ele>280.83999999999997</ele>
        <time>2015-05-02T08:44:02Z</time>
      </trkpt>
      <trkpt lat="49.982747314497828" lon="5.068528633564711">
        <ele>284.20999999999998</ele>
        <time>2015-05-02T08:44:13Z</time>
      </trkpt>
      <trkpt lat="49.982877150177956" lon="5.068119177594781">
        <ele>287.08999999999997</ele>
        <time>2015-05-02T08:44:23Z</time>
      </trkpt>
      <trkpt lat="49.983004638925195" lon="5.06770184263587">
        <ele>290.45999999999998</ele>
        <time>2015-05-02T08:44:33Z</time>
      </trkpt>
      <trkpt lat="49.983180407434702" lon="5.067033721134067">
        <ele>293.81999999999999</ele>
        <time>2015-05-02T08:44:48Z</time>
      </trkpt>
      <trkpt lat="49.983344944193959" lon="5.066441372036934">
        <ele>297.18000000000001</ele>
        <time>2015-05-02T08:45:02Z</time>
      </trkpt>
      <trkpt lat="49.983480647206306" lon="5.06601020693779">
        <ele>300.06999999999999</ele>
        <time>2015-05-02T08:45:13Z</time>
      </trkpt>
      <trkpt lat="49.983588941395283" lon="5.065638134256005">
        <ele>303.43000000000001</ele>
        <time>2015-05-02T08:45:24Z</time>
      </trkpt>
      <trkpt lat="49.9836191162467" lon="5.065591279417276">
        <ele>303.91000000000003</ele>
        <time>2015-05-02T08:45:27Z</time>
      </trkpt>
      <trkpt lat="49.983702600002289" lon="5.065248124301434">
        <ele>306.80000000000001</ele>
        <time>2015-05-02T08:45:40Z</time>
      </trkpt>
      <trkpt lat="49.983822209760547" lon="5.064813103526831">
        <ele>310.16000000000003</ele>
        <time>2015-05-02T08:46:03Z</time>
      </trkpt>
      <trkpt lat="49.983969395980239" lon="5.064289653673768">
        <ele>313.52999999999997</ele>
        <time>2015-05-02T08:46:29Z</time>
      </trkpt>
      <trkpt lat="49.984119767323136" lon="5.063863098621368">
        <ele>316.41000000000003</ele>
        <time>2015-05-02T08:46:57Z</time>
      </trkpt>
      <trkpt lat="49.984354795888066" lon="5.063310815021396">
        <ele>319.30000000000001</ele>
        <time>2015-05-02T08:47:24Z</time>
      </trkpt>
      <trkpt lat="49.984655454754829" lon="5.062943352386355">
        <ele>320.25999999999999</ele>
        <time>2015-05-02T08:47:55Z</time>
      </trkpt>
      <trkpt lat="49.984962651506066" lon="5.062445383518934">
        <ele>318.32999999999998</ele>
        <time>2015-05-02T08:48:22Z</time>
      </trkpt>
      <trkpt lat="49.985003052279353" lon="5.062394002452493">
        <ele>318.32999999999998</ele>
        <time>2015-05-02T08:49:45Z</time>
      </trkpt>
      <trkpt lat="49.985073711723089" lon="5.062463572248817">
        <ele>318.32999999999998</ele>
        <time>2015-05-02T08:49:51Z</time>
      </trkpt>
      <trkpt lat="49.985188962891698" lon="5.062604723498225">
        <ele>319.30000000000001</ele>
        <time>2015-05-02T08:50:05Z</time>
      </trkpt>
      <trkpt lat="49.98525358736515" lon="5.06266406737268">
        <ele>319.77999999999997</ele>
        <time>2015-05-02T08:50:10Z</time>
      </trkpt>
      <trkpt lat="49.985541421920061" lon="5.063048880547285">
        <ele>322.66000000000003</ele>
        <time>2015-05-02T08:50:38Z</time>
      </trkpt>
      <trkpt lat="49.985758680850267" lon="5.063607282936573">
        <ele>325.06</ele>
        <time>2015-05-02T08:51:08Z</time>
      </trkpt>
      <trkpt lat="49.985969653353095" lon="5.064137103036046">
        <ele>326.5</ele>
        <time>2015-05-02T08:51:36Z</time>
      </trkpt>
      <trkpt lat="49.986218009144068" lon="5.064604142680764">
        <ele>325.54000000000002</ele>
        <time>2015-05-02T08:52:03Z</time>
      </trkpt>
      <trkpt lat="49.986486146226525" lon="5.065112002193928">
        <ele>322.18000000000001</ele>
        <time>2015-05-02T08:52:33Z</time>
      </trkpt>
      <trkpt lat="49.986709943041205" lon="5.065459934994578">
        <ele>319.30000000000001</ele>
        <time>2015-05-02T08:52:55Z</time>
      </trkpt>
      <trkpt lat="49.986990820616484" lon="5.06593493744731">
        <ele>315.93000000000001</ele>
        <time>2015-05-02T08:53:17Z</time>
      </trkpt>
      <trkpt lat="49.987254599109292" lon="5.065986653789878">
        <ele>313.05000000000001</ele>
        <time>2015-05-02T08:53:42Z</time>
      </trkpt>
      <trkpt lat="49.987847618758678" lon="5.066061755642295">
        <ele>313.05000000000001</ele>
        <time>2015-05-02T08:54:02Z</time>
      </trkpt>
      <trkpt lat="49.98818825930357" lon="5.066084554418922">
        <ele>315.44999999999999</ele>
        <time>2015-05-02T08:54:09Z</time>
      </trkpt>
      <trkpt lat="49.988590674474835" lon="5.066114477813244">
        <ele>317.85000000000002</ele>
        <time>2015-05-02T08:54:16Z</time>
      </trkpt>
      <trkpt lat="49.989047572016716" lon="5.066152447834611">
        <ele>321.69999999999999</ele>
        <time>2015-05-02T08:54:24Z</time>
      </trkpt>
      <trkpt lat="49.989631790667772" lon="5.066189160570502">
        <ele>324.57999999999998</ele>
        <time>2015-05-02T08:54:35Z</time>
      </trkpt>
      <trkpt lat="49.990401668474078" lon="5.066228220239282">
        <ele>324.57999999999998</ele>
        <time>2015-05-02T08:54:54Z</time>
      </trkpt>
      <trkpt lat="49.990802239626646" lon="5.066220089793205">
        <ele>321.22000000000003</ele>
        <time>2015-05-02T08:55:18Z</time>
      </trkpt>
      <trkpt lat="49.991160817444324" lon="5.066256886348128">
        <ele>318.32999999999998</ele>
        <time>2015-05-02T08:55:42Z</time>
      </trkpt>
      <trkpt lat="49.99160673469305" lon="5.066288402304053">
        <ele>314.97000000000003</ele>
        <time>2015-05-02T08:56:09Z</time>
      </trkpt>
      <trkpt lat="49.991712849587202" lon="5.066280607134104">
        <ele>313.05000000000001</ele>
        <time>2015-05-02T08:56:18Z</time>
      </trkpt>
      <trkpt lat="49.991943184286356" lon="5.066287647932768">
        <ele>309.68000000000001</ele>
        <time>2015-05-02T08:56:39Z</time>
      </trkpt>
      <trkpt lat="49.992041168734431" lon="5.06629753857851">
        <ele>307.75999999999999</ele>
        <time>2015-05-02T08:56:47Z</time>
      </trkpt>
      <trkpt lat="49.992166729643941" lon="5.066344309598208">
        <ele>304.38999999999999</ele>
        <time>2015-05-02T08:56:58Z</time>
      </trkpt>
      <trkpt lat="49.992223558947444" lon="5.066662905737758">
        <ele>301.02999999999997</ele>
        <time>2015-05-02T08:57:17Z</time>
      </trkpt>
      <trkpt lat="49.992279466241598" lon="5.067141847684979">
        <ele>298.14999999999998</ele>
        <time>2015-05-02T08:57:38Z</time>
      </trkpt>
      <trkpt lat="49.99229765497148" lon="5.067250980064273">
        <ele>298.14999999999998</ele>
        <time>2015-05-02T08:57:42Z</time>
      </trkpt>
      <trkpt lat="49.992347275838256" lon="5.0676329433918">
        <ele>294.30000000000001</ele>
        <time>2015-05-02T08:57:59Z</time>
      </trkpt>
      <trkpt lat="49.992379629984498" lon="5.068022785708308">
        <ele>290.94</ele>
        <time>2015-05-02T08:58:18Z</time>
      </trkpt>
      <trkpt lat="49.99240804463625" lon="5.068569118157029">
        <ele>287.56999999999999</ele>
        <time>2015-05-02T08:58:39Z</time>
      </trkpt>
      <trkpt lat="49.992367811501026" lon="5.069095753133297">
        <ele>284.69</ele>
        <time>2015-05-02T08:59:03Z</time>
      </trkpt>
      <trkpt lat="49.992354065179825" lon="5.069370428100228">
        <ele>282.27999999999997</ele>
        <time>2015-05-02T08:59:15Z</time>
      </trkpt>
      <trkpt lat="49.992488594725728" lon="5.069221146404743">
        <ele>282.27999999999997</ele>
        <time>2015-05-02T08:59:20Z</time>
      </trkpt>
      <trkpt lat="49.992699315771461" lon="5.068833399564028">
        <ele>277.95999999999998</ele>
        <time>2015-05-02T08:59:43Z</time>
      </trkpt>
      <trkpt lat="49.992974074557424" lon="5.068439450114965">
        <ele>275.06999999999999</ele>
        <time>2015-05-02T09:00:10Z</time>
      </trkpt>
      <trkpt lat="49.993210611864924" lon="5.06814113818109">
        <ele>271.70999999999998</ele>
        <time>2015-05-02T09:00:31Z</time>
      </trkpt>
      <trkpt lat="49.993329802528024" lon="5.067948522046208">
        <ele>268.82999999999998</ele>
        <time>2015-05-02T09:00:43Z</time>
      </trkpt>
      <trkpt lat="49.993441952392459" lon="5.067667728289962">
        <ele>265.45999999999998</ele>
        <time>2015-05-02T09:01:00Z</time>
      </trkpt>
      <trkpt lat="49.993591737002134" lon="5.067362962290645">
        <ele>262.10000000000002</ele>
        <time>2015-05-02T09:01:18Z</time>
      </trkpt>
      <trkpt lat="49.993746718391776" lon="5.067058615386486">
        <ele>258.73000000000002</ele>
        <time>2015-05-02T09:01:38Z</time>
      </trkpt>
      <trkpt lat="49.993860712274909" lon="5.066869268193841">
        <ele>255.84999999999999</ele>
        <time>2015-05-02T09:01:53Z</time>
      </trkpt>
      <trkpt lat="49.994114683941007" lon="5.066530974581838">
        <ele>252.47999999999999</ele>
        <time>2015-05-02T09:02:16Z</time>
      </trkpt>
      <trkpt lat="49.994211243465543" lon="5.0665242690593">
        <ele>249.12</ele>
        <time>2015-05-02T09:02:38Z</time>
      </trkpt>
      <trkpt lat="49.994401261210442" lon="5.066423686221242">
        <ele>246.72</ele>
        <time>2015-05-02T09:03:04Z</time>
      </trkpt>
      <trkpt lat="49.994409726932645" lon="5.066468613222241">
        <ele>246.22999999999999</ele>
        <time>2015-05-02T09:03:13Z</time>
      </trkpt>
      <trkpt lat="49.994269413873553" lon="5.066963564604521">
        <ele>248.16</ele>
        <time>2015-05-02T09:03:36Z</time>
      </trkpt>
      <trkpt lat="49.994096076115966" lon="5.067530851811171">
        <ele>249.12</ele>
        <time>2015-05-02T09:04:04Z</time>
      </trkpt>
      <trkpt lat="49.994017202407122" lon="5.068004848435521">
        <ele>249.12</ele>
        <time>2015-05-02T09:04:27Z</time>
      </trkpt>
      <trkpt lat="49.993955343961716" lon="5.068705743178725">
        <ele>248.16</ele>
        <time>2015-05-02T09:04:55Z</time>
      </trkpt>
      <trkpt lat="49.993936652317643" lon="5.068962732329965">
        <ele>249.59999999999999</ele>
        <time>2015-05-02T09:05:07Z</time>
      </trkpt>
      <trkpt lat="49.993933383375406" lon="5.069004306569696">
        <ele>248.63999999999999</ele>
        <time>2015-05-02T09:05:09Z</time>
      </trkpt>
      <trkpt lat="49.99391402117908" lon="5.07028765976429">
        <ele>247.19999999999999</ele>
        <time>2015-05-02T09:06:05Z</time>
      </trkpt>
      <trkpt lat="49.993847049772739" lon="5.070658810436726">
        <ele>245.75</ele>
        <time>2015-05-02T09:06:23Z</time>
      </trkpt>
      <trkpt lat="49.99381729401648" lon="5.070757633075118">
        <ele>246.22999999999999</ele>
        <time>2015-05-02T09:06:50Z</time>
      </trkpt>
      <trkpt lat="49.993863143026829" lon="5.071852896362543">
        <ele>248.63999999999999</ele>
        <time>2015-05-02T09:07:17Z</time>
      </trkpt>
      <trkpt lat="49.993791729211807" lon="5.072433426976204">
        <ele>252</ele>
        <time>2015-05-02T09:07:42Z</time>
      </trkpt>
      <trkpt lat="49.993784856051207" lon="5.072468211874366">
        <ele>252.47999999999999</ele>
        <time>2015-05-02T09:07:43Z</time>
      </trkpt>
      <trkpt lat="49.993672957643867" lon="5.072879679501057">
        <ele>255.37</ele>
        <time>2015-05-02T09:08:04Z</time>
      </trkpt>
      <trkpt lat="49.993528453633189" lon="5.073178578168154">
        <ele>258.73000000000002</ele>
        <time>2015-05-02T09:08:22Z</time>
      </trkpt>
      <trkpt lat="49.993480173870921" lon="5.07342224009335">
        <ele>262.10000000000002</ele>
        <time>2015-05-02T09:08:38Z</time>
      </trkpt>
      <trkpt lat="49.993484197184443" lon="5.073909983038902">
        <ele>264.98000000000002</ele>
        <time>2015-05-02T09:09:00Z</time>
      </trkpt>
      <trkpt lat="49.993590479716659" lon="5.074388170614839">
        <ele>268.35000000000002</ele>
        <time>2015-05-02T09:09:20Z</time>
      </trkpt>
      <trkpt lat="49.993780329823494" lon="5.07485001347959">
        <ele>271.70999999999998</ele>
        <time>2015-05-02T09:09:45Z</time>
      </trkpt>
      <trkpt lat="49.993968084454536" lon="5.075408248230815">
        <ele>273.63</ele>
        <time>2015-05-02T09:10:15Z</time>
      </trkpt>
      <trkpt lat="49.994100853800774" lon="5.075901774689555">
        <ele>276.51999999999998</ele>
        <time>2015-05-02T09:10:38Z</time>
      </trkpt>
      <trkpt lat="49.994214093312621" lon="5.076557993888855">
        <ele>279.39999999999998</ele>
        <time>2015-05-02T09:11:08Z</time>
      </trkpt>
      <trkpt lat="49.994358764961362" lon="5.077103739604354">
        <ele>282.27999999999997</ele>
        <time>2015-05-02T09:11:37Z</time>
      </trkpt>
      <trkpt lat="49.994573760777712" lon="5.077676055952907">
        <ele>285.64999999999998</ele>
        <time>2015-05-02T09:12:05Z</time>
      </trkpt>
      <trkpt lat="49.994764951989055" lon="5.078406454995275">
        <ele>288.52999999999997</ele>
        <time>2015-05-02T09:12:37Z</time>
      </trkpt>
      <trkpt lat="49.994833935052156" lon="5.079037277027965">
        <ele>290.94</ele>
        <time>2015-05-02T09:13:03Z</time>
      </trkpt>
      <trkpt lat="49.994883053004742" lon="5.079429382458329">
        <ele>294.77999999999997</ele>
        <time>2015-05-02T09:17:26Z</time>
      </trkpt>
      <trkpt lat="49.99493963085115" lon="5.079974122345448">
        <ele>296.22000000000003</ele>
        <time>2015-05-02T09:17:54Z</time>
      </trkpt>
      <trkpt lat="49.995156973600388" lon="5.080744083970785">
        <ele>299.11000000000001</ele>
        <time>2015-05-02T09:18:27Z</time>
      </trkpt>
      <trkpt lat="49.995354115962982" lon="5.081429639831185">
        <ele>301.02999999999997</ele>
        <time>2015-05-02T09:18:57Z</time>
      </trkpt>
      <trkpt lat="49.995575146749616" lon="5.082086361944675">
        <ele>302.94999999999999</ele>
        <time>2015-05-02T09:19:26Z</time>
      </trkpt>
      <trkpt lat="49.995883014053106" lon="5.0825219694525">
        <ele>304.38999999999999</ele>
        <time>2015-05-02T09:19:56Z</time>
      </trkpt>
      <trkpt lat="49.996122485026717" lon="5.082869147881866">
        <ele>306.31999999999999</ele>
        <time>2015-05-02T09:20:17Z</time>
      </trkpt>
      <trkpt lat="49.996443595737219" lon="5.083332750946283">
        <ele>307.27999999999997</ele>
        <time>2015-05-02T09:20:47Z</time>
      </trkpt>
      <trkpt lat="49.996603354811668" lon="5.083594601601362">
        <ele>309.19999999999999</ele>
        <time>2015-05-02T09:21:05Z</time>
      </trkpt>
      <trkpt lat="49.996763449162245" lon="5.083898277953267">
        <ele>310.16000000000003</ele>
        <time>2015-05-02T09:21:22Z</time>
      </trkpt>
      <trkpt lat="49.996930165216327" lon="5.084070861339569">
        <ele>312.56999999999999</ele>
        <time>2015-05-02T09:21:37Z</time>
      </trkpt>
      <trkpt lat="49.997197464108467" lon="5.084455171599984">
        <ele>314.49000000000001</ele>
        <time>2015-05-02T09:22:02Z</time>
      </trkpt>
      <trkpt lat="49.99748345464468" lon="5.084922714158893">
        <ele>317.37</ele>
        <time>2015-05-02T09:22:26Z</time>
      </trkpt>
      <trkpt lat="49.997623516246676" lon="5.085124801844358">
        <ele>319.30000000000001</ele>
        <time>2015-05-02T09:22:40Z</time>
      </trkpt>
      <trkpt lat="49.99778788536787" lon="5.085447756573558">
        <ele>322.66000000000003</ele>
        <time>2015-05-02T09:23:01Z</time>
      </trkpt>
      <trkpt lat="49.998123664408922" lon="5.086720129474998">
        <ele>331.31</ele>
        <time>2015-05-02T09:24:04Z</time>
      </trkpt>
      <trkpt lat="49.998270599171519" lon="5.087314993143082">
        <ele>334.19999999999999</ele>
        <time>2015-05-02T09:24:26Z</time>
      </trkpt>
      <trkpt lat="49.998401524499059" lon="5.087725203484297">
        <ele>337.56</ele>
        <time>2015-05-02T09:24:46Z</time>
      </trkpt>
      <trkpt lat="49.998546866700053" lon="5.088129378855228">
        <ele>340.92000000000002</ele>
        <time>2015-05-02T09:25:07Z</time>
      </trkpt>
      <trkpt lat="49.998941151425242" lon="5.089188097044826">
        <ele>347.64999999999998</ele>
        <time>2015-05-02T09:26:03Z</time>
      </trkpt>
      <trkpt lat="49.999096635729074" lon="5.090060066431761">
        <ele>350.54000000000002</ele>
        <time>2015-05-02T09:26:26Z</time>
      </trkpt>
      <trkpt lat="49.999050870537758" lon="5.092344470322132">
        <ele>358.70999999999998</ele>
        <time>2015-05-02T09:30:02Z</time>
      </trkpt>
      <trkpt lat="49.999425793066621" lon="5.092379758134484">
        <ele>359.67000000000002</ele>
        <time>2015-05-02T09:30:18Z</time>
      </trkpt>
      <trkpt lat="49.999610027298331" lon="5.092413704842329">
        <ele>360.63</ele>
        <time>2015-05-02T09:30:57Z</time>
      </trkpt>
      <trkpt lat="49.999844133853912" lon="5.092380931600928">
        <ele>361.11000000000001</ele>
        <time>2015-05-02T09:32:50Z</time>
      </trkpt>
      <trkpt lat="50.000010933727026" lon="5.092388223856688">
        <ele>362.55000000000001</ele>
        <time>2015-05-02T09:33:13Z</time>
      </trkpt>
      <trkpt lat="50.000192150473595" lon="5.092355366796255">
        <ele>362.55000000000001</ele>
        <time>2015-05-02T09:33:24Z</time>
      </trkpt>
      <trkpt lat="50.000934870913625" lon="5.092318151146174">
        <ele>364.95999999999998</ele>
        <time>2015-05-02T09:34:18Z</time>
      </trkpt>
      <trkpt lat="50.001230500638485" lon="5.092317061498761">
        <ele>365.92000000000002</ele>
        <time>2015-05-02T09:34:41Z</time>
      </trkpt>
      <trkpt lat="50.001602154225111" lon="5.092354025691748">
        <ele>367.36000000000001</ele>
        <time>2015-05-02T09:35:05Z</time>
      </trkpt>
      <trkpt lat="50.001855622977018" lon="5.092341704294086">
        <ele>368.80000000000001</ele>
        <time>2015-05-02T09:35:23Z</time>
      </trkpt>
      <trkpt lat="50.002177488058805" lon="5.09230675175786">
        <ele>370.24000000000001</ele>
        <time>2015-05-02T09:35:44Z</time>
      </trkpt>
      <trkpt lat="50.002382677048445" lon="5.092293256893754">
        <ele>371.20999999999998</ele>
        <time>2015-05-02T09:36:00Z</time>
      </trkpt>
      <trkpt lat="50.002859858796" lon="5.092342961579561">
        <ele>373.61000000000001</ele>
        <time>2015-05-02T09:36:30Z</time>
      </trkpt>
      <trkpt lat="50.004009520635009" lon="5.092448154464364">
        <ele>376.49000000000001</ele>
        <time>2015-05-02T09:37:48Z</time>
      </trkpt>
      <trkpt lat="50.004020165652037" lon="5.092447316274047">
        <ele>375.52999999999997</ele>
        <time>2015-05-02T09:37:49Z</time>
      </trkpt>
      <trkpt lat="50.004382682964206" lon="5.092464163899422">
        <ele>376.00999999999999</ele>
        <time>2015-05-02T09:38:10Z</time>
      </trkpt>
      <trkpt lat="50.006039952859282" lon="5.092607829719782">
        <ele>371.20999999999998</ele>
        <time>2015-05-02T09:40:30Z</time>
      </trkpt>
      <trkpt lat="50.005727810785174" lon="5.093972152099013">
        <ele>371.20999999999998</ele>
        <time>2015-05-02T09:40:48Z</time>
      </trkpt>
      <trkpt lat="50.005409717559814" lon="5.094614457339048">
        <ele>371.20999999999998</ele>
        <time>2015-05-02T09:41:26Z</time>
      </trkpt>
      <trkpt lat="50.005183322355151" lon="5.097652310505509">
        <ele>370.73000000000002</ele>
        <time>2015-05-02T09:41:30Z</time>
      </trkpt>
      <trkpt lat="50.004758862778544" lon="5.098470216616988">
        <ele>368.80000000000001</ele>
        <time>2015-05-02T09:42:50Z</time>
      </trkpt>
      <trkpt lat="50.004840083420277" lon="5.099595068022609">
        <ele>367.83999999999997</ele>
        <time>2015-05-02T09:43:18Z</time>
      </trkpt>
      <trkpt lat="50.004672864452004" lon="5.101100709289312">
        <ele>361.11000000000001</ele>
        <time>2015-05-02T09:46:22Z</time>
      </trkpt>
      <trkpt lat="50.004715276882052" lon="5.101879723370075">
        <ele>351.01999999999998</ele>
        <time>2015-05-02T09:47:43Z</time>
      </trkpt>
      <trkpt lat="50.003933161497116" lon="5.102191027253866">
        <ele>332.26999999999998</ele>
        <time>2015-05-02T09:50:05Z</time>
      </trkpt>
      <trkpt lat="50.003928216174245" lon="5.102682206779718">
        <ele>328.43000000000001</ele>
        <time>2015-05-02T09:50:20Z</time>
      </trkpt>
      <trkpt lat="50.003910614177585" lon="5.102725876495242">
        <ele>332.75</ele>
        <time>2015-05-02T09:50:21Z</time>
      </trkpt>
      <trkpt lat="50.003907009959221" lon="5.102827046066523">
        <ele>328.91000000000003</ele>
        <time>2015-05-02T09:50:24Z</time>
      </trkpt>
      <trkpt lat="50.003800559788942" lon="5.103537077084184">
        <ele>328.91000000000003</ele>
        <time>2015-05-02T09:51:46Z</time>
      </trkpt>
      <trkpt lat="50.003724955022335" lon="5.103632546961308">
        <ele>328.91000000000003</ele>
        <time>2015-05-02T09:52:26Z</time>
      </trkpt>
      <trkpt lat="50.003623701632023" lon="5.103873023763299">
        <ele>330.35000000000002</ele>
        <time>2015-05-02T09:53:09Z</time>
      </trkpt>
      <trkpt lat="50.003508869558573" lon="5.104113752022386">
        <ele>333.70999999999998</ele>
        <time>2015-05-02T09:53:25Z</time>
      </trkpt>
      <trkpt lat="50.003310386091471" lon="5.104558579623699">
        <ele>336.60000000000002</ele>
        <time>2015-05-02T09:53:43Z</time>
      </trkpt>
      <trkpt lat="50.003181891515851" lon="5.104770725592971">
        <ele>339.95999999999998</ele>
        <time>2015-05-02T09:54:02Z</time>
      </trkpt>
      <trkpt lat="50.003036046400666" lon="5.105055458843708">
        <ele>342.85000000000002</ele>
        <time>2015-05-02T09:54:21Z</time>
      </trkpt>
      <trkpt lat="50.002991370856762" lon="5.105085298418999">
        <ele>343.81</ele>
        <time>2015-05-02T09:54:23Z</time>
      </trkpt>
      <trkpt lat="50.002854075282812" lon="5.105319321155548">
        <ele>346.69</ele>
        <time>2015-05-02T09:54:39Z</time>
      </trkpt>
      <trkpt lat="50.002721808850765" lon="5.105559881776571">
        <ele>349.57999999999998</ele>
        <time>2015-05-02T09:54:59Z</time>
      </trkpt>
      <trkpt lat="50.002546040341258" lon="5.105764232575893">
        <ele>352.45999999999998</ele>
        <time>2015-05-02T09:55:12Z</time>
      </trkpt>
      <trkpt lat="50.00248996540904" lon="5.105848135426641">
        <ele>352.45999999999998</ele>
        <time>2015-05-02T09:55:16Z</time>
      </trkpt>
      <trkpt lat="50.002350490540266" lon="5.106006804853678">
        <ele>355.33999999999997</ele>
        <time>2015-05-02T09:55:26Z</time>
      </trkpt>
      <trkpt lat="50.002214033156633" lon="5.106284329667687">
        <ele>357.75</ele>
        <time>2015-05-02T09:55:44Z</time>
      </trkpt>
      <trkpt lat="50.002006832510233" lon="5.106651624664664">
        <ele>361.11000000000001</ele>
        <time>2015-05-02T09:56:01Z</time>
      </trkpt>
      <trkpt lat="50.001937430351973" lon="5.10700324550271">
        <ele>364</ele>
        <time>2015-05-02T09:56:22Z</time>
      </trkpt>
      <trkpt lat="50.001845816150308" lon="5.107273897156119">
        <ele>367.36000000000001</ele>
        <time>2015-05-02T09:56:38Z</time>
      </trkpt>
      <trkpt lat="50.0015923473984" lon="5.10783732868731">
        <ele>369.75999999999999</ele>
        <time>2015-05-02T09:57:05Z</time>
      </trkpt>
      <trkpt lat="50.001497296616435" lon="5.108445016667247">
        <ele>372.17000000000002</ele>
        <time>2015-05-02T09:57:34Z</time>
      </trkpt>
      <trkpt lat="50.001392019912601" lon="5.108733857050538">
        <ele>372.64999999999998</ele>
        <time>2015-05-02T09:57:46Z</time>
      </trkpt>
      <trkpt lat="50.001303842291236" lon="5.109001658856869">
        <ele>373.13</ele>
        <time>2015-05-02T09:57:59Z</time>
      </trkpt>
      <trkpt lat="50.001228237524629" lon="5.109632564708591">
        <ele>373.13</ele>
        <time>2015-05-02T09:58:24Z</time>
      </trkpt>
      <trkpt lat="50.001118937507272" lon="5.110163893550634">
        <ele>372.17000000000002</ele>
        <time>2015-05-02T09:58:48Z</time>
      </trkpt>
      <trkpt lat="50.001004273071885" lon="5.110653229057789">
        <ele>370.24000000000001</ele>
        <time>2015-05-02T09:59:11Z</time>
      </trkpt>
      <trkpt lat="50.00093218870461" lon="5.111157735809684">
        <ele>369.27999999999997</ele>
        <time>2015-05-02T09:59:33Z</time>
      </trkpt>
      <trkpt lat="50.000932523980737" lon="5.11126552708447">
        <ele>368.31999999999999</ele>
        <time>2015-05-02T09:59:38Z</time>
      </trkpt>
      <trkpt lat="50.000881142914295" lon="5.111659225076437">
        <ele>365.92000000000002</ele>
        <time>2015-05-02T09:59:57Z</time>
      </trkpt>
      <trkpt lat="50.000867983326316" lon="5.111724184826016">
        <ele>367.83999999999997</ele>
        <time>2015-05-02T10:00:00Z</time>
      </trkpt>
      <trkpt lat="50.000749966129661" lon="5.112266577780247">
        <ele>364.95999999999998</ele>
        <time>2015-05-02T10:00:22Z</time>
      </trkpt>
      <trkpt lat="50.000744350254536" lon="5.113311130553484">
        <ele>359.67000000000002</ele>
        <time>2015-05-02T10:01:09Z</time>
      </trkpt>
      <trkpt lat="50.000735465437174" lon="5.113484803587198">
        <ele>356.31</ele>
        <time>2015-05-02T10:01:23Z</time>
      </trkpt>
      <trkpt lat="50.000745607540011" lon="5.113924602046609">
        <ele>353.42000000000002</ele>
        <time>2015-05-02T10:01:39Z</time>
      </trkpt>
      <trkpt lat="50.000763460993767" lon="5.114205228164792">
        <ele>350.54000000000002</ele>
        <time>2015-05-02T10:01:51Z</time>
      </trkpt>
      <trkpt lat="50.000777039676905" lon="5.114263901486993">
        <ele>349.57999999999998</ele>
        <time>2015-05-02T10:01:54Z</time>
      </trkpt>
      <trkpt lat="50.000775447115302" lon="5.114562129601836">
        <ele>346.69</ele>
        <time>2015-05-02T10:02:09Z</time>
      </trkpt>
      <trkpt lat="50.000799503177404" lon="5.11476706713438">
        <ele>343.32999999999998</ele>
        <time>2015-05-02T10:02:21Z</time>
      </trkpt>
      <trkpt lat="50.00079832971096" lon="5.114816268905997">
        <ele>342.85000000000002</ele>
        <time>2015-05-02T10:02:23Z</time>
      </trkpt>
      <trkpt lat="50.000825989991426" lon="5.114926239475608">
        <ele>341.41000000000003</ele>
        <time>2015-05-02T10:02:26Z</time>
      </trkpt>
      <trkpt lat="50.000837473198771" lon="5.114970831200481">
        <ele>340.92000000000002</ele>
        <time>2015-05-02T10:02:27Z</time>
      </trkpt>
      <trkpt lat="50.000966303050518" lon="5.115612968802452">
        <ele>339.95999999999998</ele>
        <time>2015-05-02T10:04:33Z</time>
      </trkpt>
      <trkpt lat="50.000717947259545" lon="5.115611124783754">
        <ele>338.04000000000002</ele>
        <time>2015-05-02T10:05:37Z</time>
      </trkpt>
      <trkpt lat="50.000605545938015" lon="5.115600395947695">
        <ele>337.07999999999998</ele>
        <time>2015-05-02T10:05:43Z</time>
      </trkpt>
      <trkpt lat="50.000236239284277" lon="5.115443486720324">
        <ele>333.70999999999998</ele>
        <time>2015-05-02T10:06:04Z</time>
      </trkpt>
      <trkpt lat="49.999985117465258" lon="5.115379197522998">
        <ele>330.35000000000002</ele>
        <time>2015-05-02T10:06:26Z</time>
      </trkpt>
      <trkpt lat="49.999131839722395" lon="5.114962700754404">
        <ele>325.06</ele>
        <time>2015-05-02T10:07:20Z</time>
      </trkpt>
      <trkpt lat="49.99888775870204" lon="5.115050124004483">
        <ele>321.69999999999999</ele>
        <time>2015-05-02T10:07:40Z</time>
      </trkpt>
      <trkpt lat="49.998831180855632" lon="5.115200579166412">
        <ele>319.77999999999997</ele>
        <time>2015-05-02T10:07:50Z</time>
      </trkpt>
      <trkpt lat="49.99865273013711" lon="5.115530071780086">
        <ele>316.41000000000003</ele>
        <time>2015-05-02T10:08:02Z</time>
      </trkpt>
      <trkpt lat="49.998506465926766" lon="5.115697961300612">
        <ele>314.49000000000001</ele>
        <time>2015-05-02T10:08:09Z</time>
      </trkpt>
      <trkpt lat="49.998310329392552" lon="5.115926032885909">
        <ele>311.12</ele>
        <time>2015-05-02T10:08:21Z</time>
      </trkpt>
      <trkpt lat="49.998172447085381" lon="5.116109093651176">
        <ele>309.68000000000001</ele>
        <time>2015-05-02T10:08:27Z</time>
      </trkpt>
      <trkpt lat="49.997788807377219" lon="5.116390055045486">
        <ele>306.31999999999999</ele>
        <time>2015-05-02T10:08:41Z</time>
      </trkpt>
      <trkpt lat="49.997470546513796" lon="5.116462307050824">
        <ele>303.43000000000001</ele>
        <time>2015-05-02T10:09:05Z</time>
      </trkpt>
      <trkpt lat="49.997287904843688" lon="5.116539169102907">
        <ele>300.06999999999999</ele>
        <time>2015-05-02T10:09:19Z</time>
      </trkpt>
      <trkpt lat="49.997091516852379" lon="5.116411847993732">
        <ele>297.18000000000001</ele>
        <time>2015-05-02T10:09:35Z</time>
      </trkpt>
      <trkpt lat="49.997066622599959" lon="5.116380415856838">
        <ele>296.22000000000003</ele>
        <time>2015-05-02T10:09:37Z</time>
      </trkpt>
      <trkpt lat="49.996901415288448" lon="5.115981604903936">
        <ele>292.86000000000001</ele>
        <time>2015-05-02T10:10:00Z</time>
      </trkpt>
      <trkpt lat="49.996644342318177" lon="5.115277273580432">
        <ele>290.45999999999998</ele>
        <time>2015-05-02T10:10:22Z</time>
      </trkpt>
      <trkpt lat="49.996513165533543" lon="5.114770922809839">
        <ele>289.49000000000001</ele>
        <time>2015-05-02T10:10:33Z</time>
      </trkpt>
      <trkpt lat="49.996607545763254" lon="5.11260244064033">
        <ele>304.88</ele>
        <time>2015-05-02T10:15:55Z</time>
      </trkpt>
      <trkpt lat="49.996635625138879" lon="5.112317372113466">
        <ele>308.24000000000001</ele>
        <time>2015-05-02T10:16:01Z</time>
      </trkpt>
      <trkpt lat="49.996659178286791" lon="5.112254591658711">
        <ele>308.24000000000001</ele>
        <time>2015-05-02T10:16:02Z</time>
      </trkpt>
      <trkpt lat="49.996679965406656" lon="5.112188290804625">
        <ele>308.72000000000003</ele>
        <time>2015-05-02T10:16:03Z</time>
      </trkpt>
      <trkpt lat="49.996706452220678" lon="5.111544393002987">
        <ele>312.56999999999999</ele>
        <time>2015-05-02T10:16:12Z</time>
      </trkpt>
      <trkpt lat="49.996677786111832" lon="5.111047681421042">
        <ele>315.93000000000001</ele>
        <time>2015-05-02T10:16:20Z</time>
      </trkpt>
      <trkpt lat="49.996619615703821" lon="5.110676614567637">
        <ele>319.30000000000001</ele>
        <time>2015-05-02T10:16:29Z</time>
      </trkpt>
      <trkpt lat="49.996608970686793" lon="5.110619869083166">
        <ele>319.30000000000001</ele>
        <time>2015-05-02T10:16:30Z</time>
      </trkpt>
      <trkpt lat="49.996574772521853" lon="5.11035718023777">
        <ele>321.22000000000003</ele>
        <time>2015-05-02T10:16:34Z</time>
      </trkpt>
      <trkpt lat="49.996501598507166" lon="5.10984068736434">
        <ele>324.10000000000002</ele>
        <time>2015-05-02T10:16:41Z</time>
      </trkpt>
      <trkpt lat="49.996460694819689" lon="5.109436428174377">
        <ele>327.94999999999999</ele>
        <time>2015-05-02T10:16:47Z</time>
      </trkpt>
      <trkpt lat="49.996437141671777" lon="5.10913903824985">
        <ele>328.91000000000003</ele>
        <time>2015-05-02T10:16:51Z</time>
      </trkpt>
      <trkpt lat="49.996431190520525" lon="5.10885514318943">
        <ele>332.26999999999998</ele>
        <time>2015-05-02T10:16:55Z</time>
      </trkpt>
      <trkpt lat="49.996459186077118" lon="5.108214681968093">
        <ele>335.16000000000003</ele>
        <time>2015-05-02T10:17:05Z</time>
      </trkpt>
      <trkpt lat="49.996425742283463" lon="5.107858367264271">
        <ele>338.51999999999998</ele>
        <time>2015-05-02T10:17:11Z</time>
      </trkpt>
      <trkpt lat="49.996395735070109" lon="5.107606071978807">
        <ele>341.41000000000003</ele>
        <time>2015-05-02T10:17:19Z</time>
      </trkpt>
      <trkpt lat="49.996337564662099" lon="5.107387388125062">
        <ele>343.81</ele>
        <time>2015-05-02T10:17:24Z</time>
      </trkpt>
      <trkpt lat="49.996299091726542" lon="5.107017578557134">
        <ele>345.73000000000002</ele>
        <time>2015-05-02T10:17:29Z</time>
      </trkpt>
      <trkpt lat="49.99627604149282" lon="5.106658162549138">
        <ele>348.62</ele>
        <time>2015-05-02T10:17:36Z</time>
      </trkpt>
      <trkpt lat="49.99626724049449" lon="5.106437131762505">
        <ele>351.5</ele>
        <time>2015-05-02T10:17:40Z</time>
      </trkpt>
      <trkpt lat="49.996281070634723" lon="5.105883255600929">
        <ele>355.33999999999997</ele>
        <time>2015-05-02T10:17:50Z</time>
      </trkpt>
      <trkpt lat="49.996265061199665" lon="5.105661386623979">
        <ele>356.79000000000002</ele>
        <time>2015-05-02T10:17:55Z</time>
      </trkpt>
      <trkpt lat="49.996193647384644" lon="5.105096362531185">
        <ele>360.14999999999998</ele>
        <time>2015-05-02T10:18:08Z</time>
      </trkpt>
      <trkpt lat="49.996166825294495" lon="5.104669472202659">
        <ele>362.55000000000001</ele>
        <time>2015-05-02T10:18:27Z</time>
      </trkpt>
      <trkpt lat="49.996040090918541" lon="5.104295387864113">
        <ele>362.55000000000001</ele>
        <time>2015-05-02T10:18:45Z</time>
      </trkpt>
      <trkpt lat="49.995816210284829" lon="5.103837987408042">
        <ele>363.04000000000002</ele>
        <time>2015-05-02T10:19:07Z</time>
      </trkpt>
      <trkpt lat="49.995610266923904" lon="5.103380251675844">
        <ele>363.04000000000002</ele>
        <time>2015-05-02T10:19:28Z</time>
      </trkpt>
      <trkpt lat="49.995435923337936" lon="5.102936262264848">
        <ele>362.55000000000001</ele>
        <time>2015-05-02T10:19:51Z</time>
      </trkpt>
      <trkpt lat="49.995203409343958" lon="5.102529572322965">
        <ele>360.14999999999998</ele>
        <time>2015-05-02T10:20:14Z</time>
      </trkpt>
      <trkpt lat="49.995011547580361" lon="5.102136544883251">
        <ele>358.23000000000002</ele>
        <time>2015-05-02T10:20:38Z</time>
      </trkpt>
      <trkpt lat="49.994747098535299" lon="5.101665565744042">
        <ele>356.31</ele>
        <time>2015-05-02T10:21:04Z</time>
      </trkpt>
      <trkpt lat="49.994617095217109" lon="5.101697249338031">
        <ele>355.33999999999997</ele>
        <time>2015-05-02T10:21:23Z</time>
      </trkpt>
      <trkpt lat="49.994591111317277" lon="5.101722478866577">
        <ele>356.79000000000002</ele>
        <time>2015-05-02T10:21:30Z</time>
      </trkpt>
      <trkpt lat="49.994242507964373" lon="5.101761622354388">
        <ele>356.79000000000002</ele>
        <time>2015-05-02T10:21:54Z</time>
      </trkpt>
      <trkpt lat="49.993897173553705" lon="5.101829096674919">
        <ele>357.26999999999998</ele>
        <time>2015-05-02T10:22:15Z</time>
      </trkpt>
      <trkpt lat="49.993468187749386" lon="5.101780900731683">
        <ele>356.31</ele>
        <time>2015-05-02T10:22:41Z</time>
      </trkpt>
      <trkpt lat="49.993015648797154" lon="5.101955411955714">
        <ele>354.86000000000001</ele>
        <time>2015-05-02T10:23:12Z</time>
      </trkpt>
      <trkpt lat="49.992689341306686" lon="5.102142998948693">
        <ele>354.86000000000001</ele>
        <time>2015-05-02T10:23:35Z</time>
      </trkpt>
      <trkpt lat="49.992321878671646" lon="5.102251963689923">
        <ele>354.86000000000001</ele>
        <time>2015-05-02T10:24:02Z</time>
      </trkpt>
      <trkpt lat="49.991890210658312" lon="5.102442149072886">
        <ele>354.86000000000001</ele>
        <time>2015-05-02T10:24:28Z</time>
      </trkpt>
      <trkpt lat="49.991515707224607" lon="5.102643314749003">
        <ele>354.38</ele>
        <time>2015-05-02T10:24:55Z</time>
      </trkpt>
      <trkpt lat="49.99107507057488" lon="5.102736856788397">
        <ele>353.89999999999998</ele>
        <time>2015-05-02T10:25:23Z</time>
      </trkpt>
      <trkpt lat="49.990758737549186" lon="5.102771893143654">
        <ele>353.42000000000002</ele>
        <time>2015-05-02T10:25:51Z</time>
      </trkpt>
      <trkpt lat="49.990166807547212" lon="5.102915475144982">
        <ele>354.38</ele>
        <time>2015-05-02T10:26:22Z</time>
      </trkpt>
      <trkpt lat="49.989857347682118" lon="5.102944895625114">
        <ele>354.86000000000001</ele>
        <time>2015-05-02T10:26:46Z</time>
      </trkpt>
      <trkpt lat="49.98933607712388" lon="5.103346975520253">
        <ele>355.33999999999997</ele>
        <time>2015-05-02T10:27:20Z</time>
      </trkpt>
      <trkpt lat="49.989155447110534" lon="5.103440936654806">
        <ele>355.33999999999997</ele>
        <time>2015-05-02T10:27:35Z</time>
      </trkpt>
      <trkpt lat="49.988795276731253" lon="5.103687699884176">
        <ele>354.86000000000001</ele>
        <time>2015-05-02T10:28:01Z</time>
      </trkpt>
      <trkpt lat="49.988496294245124" lon="5.103950975462794">
        <ele>353.42000000000002</ele>
        <time>2015-05-02T10:28:30Z</time>
      </trkpt>
      <trkpt lat="49.988055322319269" lon="5.104274516925216">
        <ele>350.54000000000002</ele>
        <time>2015-05-02T10:28:58Z</time>
      </trkpt>
      <trkpt lat="49.98772650025785" lon="5.104496385902166">
        <ele>347.64999999999998</ele>
        <time>2015-05-02T10:29:25Z</time>
      </trkpt>
      <trkpt lat="49.987192070111632" lon="5.104961581528187">
        <ele>345.25</ele>
        <time>2015-05-02T10:29:48Z</time>
      </trkpt>
      <trkpt lat="49.987011607736349" lon="5.104322712868452">
        <ele>345.25</ele>
        <time>2015-05-02T10:30:20Z</time>
      </trkpt>
      <trkpt lat="49.986782865598798" lon="5.103696333244443">
        <ele>345.25</ele>
        <time>2015-05-02T10:30:50Z</time>
      </trkpt>
      <trkpt lat="49.986718157306314" lon="5.103369522839785">
        <ele>345.73000000000002</ele>
        <time>2015-05-02T10:31:06Z</time>
      </trkpt>
      <trkpt lat="49.986567702144384" lon="5.102837691083551">
        <ele>345.73000000000002</ele>
        <time>2015-05-02T10:31:33Z</time>
      </trkpt>
      <trkpt lat="49.986346587538719" lon="5.102217681705952">
        <ele>346.20999999999998</ele>
        <time>2015-05-02T10:32:00Z</time>
      </trkpt>
      <trkpt lat="49.986078031361103" lon="5.101798502728343">
        <ele>346.69</ele>
        <time>2015-05-02T10:32:25Z</time>
      </trkpt>
      <trkpt lat="49.985983232036233" lon="5.101636648178101">
        <ele>346.69</ele>
        <time>2015-05-02T10:32:35Z</time>
      </trkpt>
      <trkpt lat="49.985823640599847" lon="5.101358368992806">
        <ele>346.69</ele>
        <time>2015-05-02T10:32:51Z</time>
      </trkpt>
      <trkpt lat="49.985460452735424" lon="5.100889569148421">
        <ele>346.20999999999998</ele>
        <time>2015-05-02T10:33:20Z</time>
      </trkpt>
      <trkpt lat="49.985108161345124" lon="5.100606177002192">
        <ele>347.64999999999998</ele>
        <time>2015-05-02T10:33:47Z</time>
      </trkpt>
      <trkpt lat="49.984795516356826" lon="5.100321192294359">
        <ele>348.13</ele>
        <time>2015-05-02T10:34:13Z</time>
      </trkpt>
      <trkpt lat="49.984327303245664" lon="5.099994633346796">
        <ele>348.13</ele>
        <time>2015-05-02T10:34:43Z</time>
      </trkpt>
      <trkpt lat="49.983990853652358" lon="5.099683748558164">
        <ele>349.10000000000002</ele>
        <time>2015-05-02T10:35:10Z</time>
      </trkpt>
      <trkpt lat="49.983831429854035" lon="5.099521726369858">
        <ele>348.62</ele>
        <time>2015-05-02T10:35:28Z</time>
      </trkpt>
      <trkpt lat="49.983461704105139" lon="5.099169770255685">
        <ele>350.54000000000002</ele>
        <time>2015-05-02T10:35:52Z</time>
      </trkpt>
      <trkpt lat="49.983422560617328" lon="5.099124759435654">
        <ele>350.54000000000002</ele>
        <time>2015-05-02T10:35:55Z</time>
      </trkpt>
      <trkpt lat="49.983101449906826" lon="5.098823178559542">
        <ele>351.5</ele>
        <time>2015-05-02T10:36:23Z</time>
      </trkpt>
      <trkpt lat="49.982450678944588" lon="5.09793184697628">
        <ele>351.98000000000002</ele>
        <time>2015-05-02T10:37:20Z</time>
      </trkpt>
      <trkpt lat="49.982051197439432" lon="5.097458185628057">
        <ele>351.01999999999998</ele>
        <time>2015-05-02T10:37:48Z</time>
      </trkpt>
      <trkpt lat="49.981762692332268" lon="5.097122909501195">
        <ele>350.06</ele>
        <time>2015-05-02T10:38:09Z</time>
      </trkpt>
      <trkpt lat="49.98161718249321" lon="5.096968514844775">
        <ele>349.57999999999998</ele>
        <time>2015-05-02T10:38:24Z</time>
      </trkpt>
      <trkpt lat="49.981238236650825" lon="5.0966892298311">
        <ele>350.54000000000002</ele>
        <time>2015-05-02T10:38:54Z</time>
      </trkpt>
      <trkpt lat="49.981030868366361" lon="5.096477838233113">
        <ele>350.06</ele>
        <time>2015-05-02T10:39:43Z</time>
      </trkpt>
      <trkpt lat="49.981002286076546" lon="5.096396114677191">
        <ele>350.06</ele>
        <time>2015-05-02T10:40:01Z</time>
      </trkpt>
      <trkpt lat="49.980915198102593" lon="5.096357306465507">
        <ele>350.54000000000002</ele>
        <time>2015-05-02T10:40:21Z</time>
      </trkpt>
      <trkpt lat="49.980735825374722" lon="5.096262758597732">
        <ele>349.57999999999998</ele>
        <time>2015-05-02T10:41:10Z</time>
      </trkpt>
      <trkpt lat="49.9803985375911" lon="5.095850620418787">
        <ele>348.62</ele>
        <time>2015-05-02T10:41:42Z</time>
      </trkpt>
      <trkpt lat="49.980328213423491" lon="5.095727574080229">
        <ele>347.64999999999998</ele>
        <time>2015-05-02T10:41:49Z</time>
      </trkpt>
      <trkpt lat="49.980292757973075" lon="5.09582681581378">
        <ele>348.62</ele>
        <time>2015-05-02T10:41:51Z</time>
      </trkpt>
      <trkpt lat="49.979854803532362" lon="5.095853051170707">
        <ele>350.06</ele>
        <time>2015-05-02T10:42:23Z</time>
      </trkpt>
      <trkpt lat="49.97984005138278" lon="5.095848357304931">
        <ele>350.06</ele>
        <time>2015-05-02T10:42:24Z</time>
      </trkpt>
      <trkpt lat="49.9793088901788" lon="5.09576378390193">
        <ele>349.57999999999998</ele>
        <time>2015-05-02T10:42:50Z</time>
      </trkpt>
      <trkpt lat="49.979239236563444" lon="5.095630679279566">
        <ele>349.57999999999998</ele>
        <time>2015-05-02T10:43:13Z</time>
      </trkpt>
      <trkpt lat="49.978958442807198" lon="5.095215272158384">
        <ele>351.5</ele>
        <time>2015-05-02T10:43:44Z</time>
      </trkpt>
      <trkpt lat="49.97861361131072" lon="5.095345443114638">
        <ele>351.01999999999998</ele>
        <time>2015-05-02T10:43:54Z</time>
      </trkpt>
      <trkpt lat="49.978198623284698" lon="5.095137655735016">
        <ele>351.01999999999998</ele>
        <time>2015-05-02T10:44:20Z</time>
      </trkpt>
      <trkpt lat="49.977949177846313" lon="5.09538852609694">
        <ele>350.06</ele>
        <time>2015-05-02T10:44:46Z</time>
      </trkpt>
      <trkpt lat="49.977749437093735" lon="5.095321722328663">
        <ele>350.54000000000002</ele>
        <time>2015-05-02T10:45:10Z</time>
      </trkpt>
      <trkpt lat="49.977711047977209" lon="5.095273442566395">
        <ele>351.01999999999998</ele>
        <time>2015-05-02T10:45:36Z</time>
      </trkpt>
      <trkpt lat="49.977443162351847" lon="5.094985943287611">
        <ele>350.06</ele>
        <time>2015-05-02T10:45:59Z</time>
      </trkpt>
      <trkpt lat="49.977121464908123" lon="5.094607416540384">
        <ele>349.10000000000002</ele>
        <time>2015-05-02T10:46:26Z</time>
      </trkpt>
      <trkpt lat="49.977070419117808" lon="5.094532147049904">
        <ele>349.10000000000002</ele>
        <time>2015-05-02T10:46:35Z</time>
      </trkpt>
      <trkpt lat="49.977062623947859" lon="5.094515299424529">
        <ele>349.10000000000002</ele>
        <time>2015-05-02T10:46:58Z</time>
      </trkpt>
      <trkpt lat="49.976883586496115" lon="5.094725517556071">
        <ele>347.64999999999998</ele>
        <time>2015-05-02T10:47:23Z</time>
      </trkpt>
      <trkpt lat="49.976465413346887" lon="5.094212209805846">
        <ele>347.17000000000002</ele>
        <time>2015-05-02T10:47:52Z</time>
      </trkpt>
      <trkpt lat="49.976310851052403" lon="5.093907276168466">
        <ele>346.20999999999998</ele>
        <time>2015-05-02T10:48:16Z</time>
      </trkpt>
      <trkpt lat="49.976060148328543" lon="5.093464879319072">
        <ele>345.73000000000002</ele>
        <time>2015-05-02T10:48:40Z</time>
      </trkpt>
      <trkpt lat="49.975723447278142" lon="5.092952158302069">
        <ele>346.20999999999998</ele>
        <time>2015-05-02T10:49:06Z</time>
      </trkpt>
      <trkpt lat="49.97550493106246" lon="5.092602968215942">
        <ele>347.64999999999998</ele>
        <time>2015-05-02T10:49:34Z</time>
      </trkpt>
      <trkpt lat="49.975139899179339" lon="5.092103909701109">
        <ele>347.64999999999998</ele>
        <time>2015-05-02T10:50:08Z</time>
      </trkpt>
      <trkpt lat="49.974798588082194" lon="5.091657321900129">
        <ele>346.69</ele>
        <time>2015-05-02T10:50:41Z</time>
      </trkpt>
      <trkpt lat="49.974321322515607" lon="5.091241830959916">
        <ele>346.20999999999998</ele>
        <time>2015-05-02T10:51:13Z</time>
      </trkpt>
      <trkpt lat="49.974190900102258" lon="5.09122297167778">
        <ele>344.29000000000002</ele>
        <time>2015-05-02T10:51:38Z</time>
      </trkpt>
      <trkpt lat="49.974238509312272" lon="5.091005293652415">
        <ele>344.29000000000002</ele>
        <time>2015-05-02T10:52:00Z</time>
      </trkpt>
      <trkpt lat="49.973761243745685" lon="5.090223429724574">
        <ele>342.85000000000002</ele>
        <time>2015-05-02T10:52:27Z</time>
      </trkpt>
      <trkpt lat="49.973434181883931" lon="5.089759491384029">
        <ele>341.88999999999999</ele>
        <time>2015-05-02T10:52:57Z</time>
      </trkpt>
      <trkpt lat="49.973093960434198" lon="5.089304856956005">
        <ele>340.92000000000002</ele>
        <time>2015-05-02T10:53:25Z</time>
      </trkpt>
      <trkpt lat="49.972727838903666" lon="5.088966395705938">
        <ele>339.48000000000002</ele>
        <time>2015-05-02T10:53:52Z</time>
      </trkpt>
      <trkpt lat="49.972350737079978" lon="5.088713262230158">
        <ele>337.07999999999998</ele>
        <time>2015-05-02T10:54:23Z</time>
      </trkpt>
      <trkpt lat="49.972022334113717" lon="5.088435485959053">
        <ele>336.12</ele>
        <time>2015-05-02T10:54:45Z</time>
      </trkpt>
      <trkpt lat="49.971676496788859" lon="5.088079087436199">
        <ele>334.68000000000001</ele>
        <time>2015-05-02T10:55:10Z</time>
      </trkpt>
      <trkpt lat="49.971411544829607" lon="5.087839784100652">
        <ele>333.70999999999998</ele>
        <time>2015-05-02T10:55:32Z</time>
      </trkpt>
      <trkpt lat="49.971335185691714" lon="5.087881609797478">
        <ele>334.19999999999999</ele>
        <time>2015-05-02T10:55:38Z</time>
      </trkpt>
      <trkpt lat="49.97116687707603" lon="5.088158380240202">
        <ele>333.23000000000002</ele>
        <time>2015-05-02T10:55:54Z</time>
      </trkpt>
      <trkpt lat="49.97106621041894" lon="5.088143208995462">
        <ele>332.75</ele>
        <time>2015-05-02T10:56:00Z</time>
      </trkpt>
      <trkpt lat="49.970617443323135" lon="5.087785301730037">
        <ele>331.31</ele>
        <time>2015-05-02T10:56:33Z</time>
      </trkpt>
      <trkpt lat="49.970318544656038" lon="5.087539292871952">
        <ele>331.79000000000002</ele>
        <time>2015-05-02T10:56:57Z</time>
      </trkpt>
      <trkpt lat="49.969905484467745" lon="5.087210889905691">
        <ele>332.75</ele>
        <time>2015-05-02T10:57:28Z</time>
      </trkpt>
      <trkpt lat="49.969531735405326" lon="5.086925234645605">
        <ele>334.19999999999999</ele>
        <time>2015-05-02T10:57:58Z</time>
      </trkpt>
      <trkpt lat="49.969131583347917" lon="5.086603621020913">
        <ele>335.63999999999999</ele>
        <time>2015-05-02T10:58:33Z</time>
      </trkpt>
      <trkpt lat="49.968841150403023" lon="5.086362054571509">
        <ele>335.63999999999999</ele>
        <time>2015-05-02T10:58:41Z</time>
      </trkpt>
      <trkpt lat="49.969123788177967" lon="5.085759060457349">
        <ele>333.23000000000002</ele>
        <time>2015-05-02T10:59:07Z</time>
      </trkpt>
      <trkpt lat="49.969238117337227" lon="5.085514225065708">
        <ele>329.87</ele>
        <time>2015-05-02T10:59:17Z</time>
      </trkpt>
      <trkpt lat="49.969391422346234" lon="5.085053388029337">
        <ele>326.99000000000001</ele>
        <time>2015-05-02T10:59:36Z</time>
      </trkpt>
      <trkpt lat="49.969549337401986" lon="5.084668155759573">
        <ele>323.62</ele>
        <time>2015-05-02T10:59:55Z</time>
      </trkpt>
      <trkpt lat="49.969668108969927" lon="5.084241265431047">
        <ele>320.74000000000001</ele>
        <time>2015-05-02T11:00:15Z</time>
      </trkpt>
      <trkpt lat="49.969786629080772" lon="5.083709517493844">
        <ele>317.85000000000002</ele>
        <time>2015-05-02T11:00:39Z</time>
      </trkpt>
      <trkpt lat="49.96990866959095" lon="5.083164861425757">
        <ele>314.49000000000001</ele>
        <time>2015-05-02T11:01:05Z</time>
      </trkpt>
      <trkpt lat="49.970001876354218" lon="5.082777198404074">
        <ele>312.56999999999999</ele>
        <time>2015-05-02T11:01:28Z</time>
      </trkpt>
      <trkpt lat="49.970420636236668" lon="5.082890940830112">
        <ele>311.60000000000002</ele>
        <time>2015-05-02T11:01:50Z</time>
      </trkpt>
      <trkpt lat="49.970473106950521" lon="5.082182167097926">
        <ele>308.72000000000003</ele>
        <time>2015-05-02T11:02:13Z</time>
      </trkpt>
      <trkpt lat="49.970489954575896" lon="5.081502981483936">
        <ele>306.31999999999999</ele>
        <time>2015-05-02T11:02:41Z</time>
      </trkpt>
      <trkpt lat="49.970543347299099" lon="5.080948015674949">
        <ele>306.31999999999999</ele>
        <time>2015-05-02T11:03:05Z</time>
      </trkpt>
      <trkpt lat="49.970556003972888" lon="5.080757411196828">
        <ele>309.19999999999999</ele>
        <time>2015-05-02T11:03:14Z</time>
      </trkpt>
      <trkpt lat="49.970560697838664" lon="5.080658420920372">
        <ele>305.83999999999997</ele>
        <time>2015-05-02T11:03:18Z</time>
      </trkpt>
      <trkpt lat="49.970560362562537" lon="5.080500254407525">
        <ele>311.60000000000002</ele>
        <time>2015-05-02T11:03:25Z</time>
      </trkpt>
      <trkpt lat="49.970560949295759" lon="5.080478042364121">
        <ele>307.75999999999999</ele>
        <time>2015-05-02T11:03:26Z</time>
      </trkpt>
      <trkpt lat="49.970612414181232" lon="5.07976658642292">
        <ele>309.19999999999999</ele>
        <time>2015-05-02T11:03:53Z</time>
      </trkpt>
      <trkpt lat="49.970606463029981" lon="5.079238610342145">
        <ele>309.19999999999999</ele>
        <time>2015-05-02T11:04:15Z</time>
      </trkpt>
      <trkpt lat="49.970602104440331" lon="5.079089999198914">
        <ele>309.68000000000001</ele>
        <time>2015-05-02T11:04:22Z</time>
      </trkpt>
      <trkpt lat="49.970589531585574" lon="5.078893108293414">
        <ele>310.16000000000003</ele>
        <time>2015-05-02T11:04:31Z</time>
      </trkpt>
      <trkpt lat="49.970565224066377" lon="5.07835054770112">
        <ele>311.60000000000002</ele>
        <time>2015-05-02T11:05:03Z</time>
      </trkpt>
      <trkpt lat="49.970650468021631" lon="5.077434154227376">
        <ele>312.08999999999997</ele>
        <time>2015-05-02T11:05:34Z</time>
      </trkpt>
      <trkpt lat="49.970866218209267" lon="5.076661678031087">
        <ele>312.08999999999997</ele>
        <time>2015-05-02T11:06:08Z</time>
      </trkpt>
      <trkpt lat="49.971089428290725" lon="5.075975619256496">
        <ele>312.56999999999999</ele>
        <time>2015-05-02T11:06:39Z</time>
      </trkpt>
      <trkpt lat="49.971556384116411" lon="5.074695451185107">
        <ele>313.05000000000001</ele>
        <time>2015-05-02T11:07:39Z</time>
      </trkpt>
      <trkpt lat="49.971872381865978" lon="5.074265040457249">
        <ele>312.56999999999999</ele>
        <time>2015-05-02T11:08:04Z</time>
      </trkpt>
      <trkpt lat="49.972099112346768" lon="5.073803449049592">
        <ele>311.12</ele>
        <time>2015-05-02T11:08:27Z</time>
      </trkpt>
      <trkpt lat="49.972379989922047" lon="5.073408074676991">
        <ele>310.63999999999999</ele>
        <time>2015-05-02T11:08:50Z</time>
      </trkpt>
      <trkpt lat="49.972915425896645" lon="5.072651943191886">
        <ele>307.27999999999997</ele>
        <time>2015-05-02T11:09:30Z</time>
      </trkpt>
      <trkpt lat="49.97316487133503" lon="5.072123212739825">
        <ele>304.88</ele>
        <time>2015-05-02T11:09:59Z</time>
      </trkpt>
      <trkpt lat="49.97339797206223" lon="5.071772262454033">
        <ele>302.94999999999999</ele>
        <time>2015-05-02T11:10:23Z</time>
      </trkpt>
      <trkpt lat="49.97366527095437" lon="5.071282424032688">
        <ele>299.58999999999997</ele>
        <time>2015-05-02T11:10:51Z</time>
      </trkpt>
      <trkpt lat="49.974104147404432" lon="5.070928875356913">
        <ele>296.69999999999999</ele>
        <time>2015-05-02T11:11:12Z</time>
      </trkpt>
      <trkpt lat="49.974395167082548" lon="5.07071815431118">
        <ele>293.33999999999997</ele>
        <time>2015-05-02T11:11:34Z</time>
      </trkpt>
      <trkpt lat="49.97457948513329" lon="5.070677502080798">
        <ele>290.94</ele>
        <time>2015-05-02T11:11:46Z</time>
      </trkpt>
      <trkpt lat="49.974795402958989" lon="5.070644812658429">
        <ele>287.56999999999999</ele>
        <time>2015-05-02T11:12:03Z</time>
      </trkpt>
      <trkpt lat="49.974985755980015" lon="5.070713041350246">
        <ele>284.20999999999998</ele>
        <time>2015-05-02T11:12:17Z</time>
      </trkpt>
      <trkpt lat="49.97517317533493" lon="5.070830304175615">
        <ele>280.83999999999997</ele>
        <time>2015-05-02T11:12:29Z</time>
      </trkpt>
      <trkpt lat="49.975205780938268" lon="5.070848660543561">
        <ele>281.31999999999999</ele>
        <time>2015-05-02T11:12:31Z</time>
      </trkpt>
      <trkpt lat="49.975233692675829" lon="5.070871375501156">
        <ele>280.36000000000001</ele>
        <time>2015-05-02T11:12:33Z</time>
      </trkpt>
      <trkpt lat="49.975325390696526" lon="5.070931138470769">
        <ele>278.44</ele>
        <time>2015-05-02T11:12:42Z</time>
      </trkpt>
      <trkpt lat="49.975543823093176" lon="5.070982603356242">
        <ele>275.06999999999999</ele>
        <time>2015-05-02T11:12:57Z</time>
      </trkpt>
      <trkpt lat="49.975789161399007" lon="5.070775151252747">
        <ele>272.19</ele>
        <time>2015-05-02T11:13:15Z</time>
      </trkpt>
      <trkpt lat="49.975957972928882" lon="5.070547666400671">
        <ele>271.23000000000002</ele>
        <time>2015-05-02T11:13:24Z</time>
      </trkpt>
      <trkpt lat="49.975936682894826" lon="5.070150950923562">
        <ele>270.75</ele>
        <time>2015-05-02T11:13:55Z</time>
      </trkpt>
      <trkpt lat="49.976024692878127" lon="5.06993243470788">
        <ele>270.26999999999998</ele>
        <time>2015-05-02T11:14:28Z</time>
      </trkpt>
      <trkpt lat="49.976176070049405" lon="5.070311883464456">
        <ele>271.23000000000002</ele>
        <time>2015-05-02T11:16:36Z</time>
      </trkpt>
      <trkpt lat="49.9767582770437" lon="5.071180500090122">
        <ele>272.19</ele>
        <time>2015-05-02T11:16:50Z</time>
      </trkpt>
      <trkpt lat="49.97768179513514" lon="5.072041740640998">
        <ele>273.63</ele>
        <time>2015-05-02T11:17:10Z</time>
      </trkpt>
      <trkpt lat="49.977739211171865" lon="5.071956999599934">
        <ele>277</ele>
        <time>2015-05-02T11:17:21Z</time>
      </trkpt>
      <trkpt lat="49.97740276157856" lon="5.071686850860715">
        <ele>278.92000000000002</ele>
        <time>2015-05-02T11:17:25Z</time>
      </trkpt>
      <trkpt lat="49.9768550042063" lon="5.071093663573265">
        <ele>279.39999999999998</ele>
        <time>2015-05-02T11:17:56Z</time>
      </trkpt>
      <trkpt lat="49.976427610963583" lon="5.070361504331231">
        <ele>280.83999999999997</ele>
        <time>2015-05-02T11:18:22Z</time>
      </trkpt>
      <trkpt lat="49.976459881290793" lon="5.070123290643096">
        <ele>283.25</ele>
        <time>2015-05-02T11:18:47Z</time>
      </trkpt>
      <trkpt lat="49.976462312042713" lon="5.069967554882169">
        <ele>286.13</ele>
        <time>2015-05-02T11:18:58Z</time>
      </trkpt>
      <trkpt lat="49.976537078619003" lon="5.069599421694875">
        <ele>289.49000000000001</ele>
        <time>2015-05-02T11:19:14Z</time>
      </trkpt>
      <trkpt lat="49.976527774706483" lon="5.069387275725603">
        <ele>292.38</ele>
        <time>2015-05-02T11:19:28Z</time>
      </trkpt>
      <trkpt lat="49.976537330076098" lon="5.069104302674532">
        <ele>295.74000000000001</ele>
        <time>2015-05-02T11:19:44Z</time>
      </trkpt>
      <trkpt lat="49.976605558767915" lon="5.068475659936667">
        <ele>297.18000000000001</ele>
        <time>2015-05-02T11:19:57Z</time>
      </trkpt>
      <trkpt lat="49.976785602048039" lon="5.06816016510129">
        <ele>299.58999999999997</ele>
        <time>2015-05-02T11:28:19Z</time>
      </trkpt>
      <trkpt lat="49.977042507380247" lon="5.067728580906987">
        <ele>302.94999999999999</ele>
        <time>2015-05-02T11:28:44Z</time>
      </trkpt>
      <trkpt lat="49.977160524576902" lon="5.067328931763768">
        <ele>305.36000000000001</ele>
        <time>2015-05-02T11:29:14Z</time>
      </trkpt>
      <trkpt lat="49.977266220375896" lon="5.067081078886986">
        <ele>305.83999999999997</ele>
        <time>2015-05-02T11:29:41Z</time>
      </trkpt>
      <trkpt lat="49.977237721905112" lon="5.066886702552438">
        <ele>307.27999999999997</ele>
        <time>2015-05-02T11:30:06Z</time>
      </trkpt>
      <trkpt lat="49.977083997800946" lon="5.066225621849299">
        <ele>307.27999999999997</ele>
        <time>2015-05-02T11:30:33Z</time>
      </trkpt>
      <trkpt lat="49.977226154878736" lon="5.065493211150169">
        <ele>307.75999999999999</ele>
        <time>2015-05-02T11:30:52Z</time>
      </trkpt>
      <trkpt lat="49.978050515055656" lon="5.065230019390583">
        <ele>305.36000000000001</ele>
        <time>2015-05-02T11:31:09Z</time>
      </trkpt>
      <trkpt lat="49.978251848369837" lon="5.065131867304444">
        <ele>301.99000000000001</ele>
        <time>2015-05-02T11:31:23Z</time>
      </trkpt>
      <trkpt lat="49.978564828634262" lon="5.065129855647683">
        <ele>297.67000000000002</ele>
        <time>2015-05-02T11:31:38Z</time>
      </trkpt>
      <trkpt lat="49.979029269888997" lon="5.06501879543066">
        <ele>295.25999999999999</ele>
        <time>2015-05-02T11:32:07Z</time>
      </trkpt>
      <trkpt lat="49.979183077812195" lon="5.06492885760963">
        <ele>294.30000000000001</ele>
        <time>2015-05-02T11:32:18Z</time>
      </trkpt>
      <trkpt lat="49.979499913752079" lon="5.064789215102792">
        <ele>297.18000000000001</ele>
        <time>2015-05-02T11:32:47Z</time>
      </trkpt>
      <trkpt lat="49.979399498552084" lon="5.06438403390348">
        <ele>295.25999999999999</ele>
        <time>2015-05-02T11:32:48Z</time>
      </trkpt>
      <trkpt lat="49.979273099452257" lon="5.063872570171952">
        <ele>296.69999999999999</ele>
        <time>2015-05-02T11:33:11Z</time>
      </trkpt>
      <trkpt lat="49.979263292625546" lon="5.063774585723877">
        <ele>297.18000000000001</ele>
        <time>2015-05-02T11:33:17Z</time>
      </trkpt>
      <trkpt lat="49.979228088632226" lon="5.063689928501844">
        <ele>297.18000000000001</ele>
        <time>2015-05-02T11:33:22Z</time>
      </trkpt>
      <trkpt lat="49.979115771129727" lon="5.063344342634082">
        <ele>298.63</ele>
        <time>2015-05-02T11:33:41Z</time>
      </trkpt>
      <trkpt lat="49.979103114455938" lon="5.063277957960963">
        <ele>299.58999999999997</ele>
        <time>2015-05-02T11:33:44Z</time>
      </trkpt>
      <trkpt lat="49.978971602395177" lon="5.062882835045457">
        <ele>299.58999999999997</ele>
        <time>2015-05-02T11:34:04Z</time>
      </trkpt>
      <trkpt lat="49.978796252980828" lon="5.062478994950652">
        <ele>304.38999999999999</ele>
        <time>2015-05-02T11:34:29Z</time>
      </trkpt>
      <trkpt lat="49.978777728974819" lon="5.06241294555366">
        <ele>298.14999999999998</ele>
        <time>2015-05-02T11:34:31Z</time>
      </trkpt>
      <trkpt lat="49.97858720831573" lon="5.061978008598089">
        <ele>304.88</ele>
        <time>2015-05-02T11:34:57Z</time>
      </trkpt>
      <trkpt lat="49.978386713191867" lon="5.061301840469241">
        <ele>306.31999999999999</ele>
        <time>2015-05-02T11:35:19Z</time>
      </trkpt>
      <trkpt lat="49.978353101760149" lon="5.061226235702634">
        <ele>306.80000000000001</ele>
        <time>2015-05-02T11:35:23Z</time>
      </trkpt>
      <trkpt lat="49.97833114117384" lon="5.061177285388112">
        <ele>307.27999999999997</ele>
        <time>2015-05-02T11:35:26Z</time>
      </trkpt>
      <trkpt lat="49.978239694610238" lon="5.060801105573773">
        <ele>310.16000000000003</ele>
        <time>2015-05-02T11:35:47Z</time>
      </trkpt>
      <trkpt lat="49.978226535022259" lon="5.06073203869164">
        <ele>310.63999999999999</ele>
        <time>2015-05-02T11:35:51Z</time>
      </trkpt>
      <trkpt lat="49.978112960234284" lon="5.060162991285324">
        <ele>311.60000000000002</ele>
        <time>2015-05-02T11:36:16Z</time>
      </trkpt>
      <trkpt lat="49.978072559460998" lon="5.060051092877984">
        <ele>312.56999999999999</ele>
        <time>2015-05-02T11:36:22Z</time>
      </trkpt>
      <trkpt lat="49.977827556431293" lon="5.059339804574847">
        <ele>314.49000000000001</ele>
        <time>2015-05-02T11:36:49Z</time>
      </trkpt>
      <trkpt lat="49.977772235870361" lon="5.059050712734461">
        <ele>316.88999999999999</ele>
        <time>2015-05-02T11:37:00Z</time>
      </trkpt>
      <trkpt lat="49.97768322005868" lon="5.058499267324805">
        <ele>319.30000000000001</ele>
        <time>2015-05-02T11:37:24Z</time>
      </trkpt>
      <trkpt lat="49.977629324421287" lon="5.058078244328499">
        <ele>320.74000000000001</ele>
        <time>2015-05-02T11:37:49Z</time>
      </trkpt>
      <trkpt lat="49.977509630843997" lon="5.057502994313836">
        <ele>320.25999999999999</ele>
        <time>2015-05-02T11:38:10Z</time>
      </trkpt>
      <trkpt lat="49.97736319899559" lon="5.057107284665108">
        <ele>318.81</ele>
        <time>2015-05-02T11:38:32Z</time>
      </trkpt>
      <trkpt lat="49.977305699139833" lon="5.056997314095497">
        <ele>318.32999999999998</ele>
        <time>2015-05-02T11:38:38Z</time>
      </trkpt>
      <trkpt lat="49.977137893438339" lon="5.056475205346942">
        <ele>316.88999999999999</ele>
        <time>2015-05-02T11:39:01Z</time>
      </trkpt>
      <trkpt lat="49.976945864036679" lon="5.056074885651469">
        <ele>316.88999999999999</ele>
        <time>2015-05-02T11:39:24Z</time>
      </trkpt>
      <trkpt lat="49.976805886253715" lon="5.055593010038137">
        <ele>315.93000000000001</ele>
        <time>2015-05-02T11:39:47Z</time>
      </trkpt>
      <trkpt lat="49.976548980921507" lon="5.055007534101605">
        <ele>315.93000000000001</ele>
        <time>2015-05-02T11:40:11Z</time>
      </trkpt>
      <trkpt lat="49.976350162178278" lon="5.054443180561066">
        <ele>315.44999999999999</ele>
        <time>2015-05-02T11:40:38Z</time>
      </trkpt>
      <trkpt lat="49.976152600720525" lon="5.05383993498981">
        <ele>315.93000000000001</ele>
        <time>2015-05-02T11:41:04Z</time>
      </trkpt>
      <trkpt lat="49.975999379530549" lon="5.053278096020222">
        <ele>315.44999999999999</ele>
        <time>2015-05-02T11:41:29Z</time>
      </trkpt>
      <trkpt lat="49.975892761722207" lon="5.052791442722082">
        <ele>316.88999999999999</ele>
        <time>2015-05-02T11:41:52Z</time>
      </trkpt>
      <trkpt lat="49.975729901343584" lon="5.05220353603363">
        <ele>317.37</ele>
        <time>2015-05-02T11:42:19Z</time>
      </trkpt>
      <trkpt lat="49.975596461445093" lon="5.051813777536154">
        <ele>319.77999999999997</ele>
        <time>2015-05-02T11:42:42Z</time>
      </trkpt>
      <trkpt lat="49.975548852235079" lon="5.051588136702776">
        <ele>320.25999999999999</ele>
        <time>2015-05-02T11:43:01Z</time>
      </trkpt>
      <trkpt lat="49.975398145616055" lon="5.051189744845033">
        <ele>321.22000000000003</ele>
        <time>2015-05-02T11:43:25Z</time>
      </trkpt>
      <trkpt lat="49.975259844213724" lon="5.050759417936206">
        <ele>322.66000000000003</ele>
        <time>2015-05-02T11:43:48Z</time>
      </trkpt>
      <trkpt lat="49.975116681307554" lon="5.050293048843741">
        <ele>323.13999999999999</ele>
        <time>2015-05-02T11:44:12Z</time>
      </trkpt>
      <trkpt lat="49.975084578618407" lon="5.050214342772961">
        <ele>323.62</ele>
        <time>2015-05-02T11:44:18Z</time>
      </trkpt>
      <trkpt lat="49.974947199225426" lon="5.049756104126573">
        <ele>324.57999999999998</ele>
        <time>2015-05-02T11:44:45Z</time>
      </trkpt>
      <trkpt lat="49.974844940006733" lon="5.04945108667016">
        <ele>326.01999999999998</ele>
        <time>2015-05-02T11:45:09Z</time>
      </trkpt>
      <trkpt lat="49.974725916981697" lon="5.04922678694129">
        <ele>326.01999999999998</ele>
        <time>2015-05-02T12:05:56Z</time>
      </trkpt>
      <trkpt lat="49.974452750757337" lon="5.049437759444118">
        <ele>325.54000000000002</ele>
        <time>2015-05-02T12:10:01Z</time>
      </trkpt>
      <trkpt lat="49.974210429936647" lon="5.049688462167978">
        <ele>324.57999999999998</ele>
        <time>2015-05-02T12:14:59Z</time>
      </trkpt>
    </trkseg>
  </trk>

</gpx>